sensor_id;sensor_type;location;lat;lon;timestamp;temperature;humidity
41720;DHT22;27405;53.316;-6.294;2024-01-30T00:01:17;4.10;99.90
41720;DHT22;27405;53.316;-6.294;2024-01-30T00:03:42;4.10;99.90
41720;DHT22;27405;53.316;-6.294;2024-01-30T00:06:09;4.00;99.90
41720;DHT22;27405;53.316;-6.294;2024-01-30T00:08:35;4.00;99.90
41720;DHT22;27405;53.316;-6.294;2024-01-30T00:11:00;4.10;99.90
41720;DHT22;27405;53.316;-6.294;2024-01-30T00:13:26;4.00;99.90
41720;DHT22;27405;53.316;-6.294;2024-01-30T00:15:52;4.00;99.90
41720;DHT22;27405;53.316;-6.294;2024-01-30T00:18:18;4.00;99.90
41720;DHT22;27405;53.316;-6.294;2024-01-30T00:20:44;4.00;99.90
41720;DHT22;27405;53.316;-6.294;2024-01-30T00:23:10;4.00;99.90
41720;DHT22;27405;53.316;-6.294;2024-01-30T00:25:35;4.00;99.90
41720;DHT22;27405;53.316;-6.294;2024-01-30T00:28:01;4.00;99.90
41720;DHT22;27405;53.316;-6.294;2024-01-30T00:30:27;4.00;99.90
41720;DHT22;27405;53.316;-6.294;2024-01-30T00:32:53;4.00;99.90
41720;DHT22;27405;53.316;-6.294;2024-01-30T00:35:19;3.90;99.90
41720;DHT22;27405;53.316;-6.294;2024-01-30T00:37:45;3.90;99.90
41720;DHT22;27405;53.316;-6.294;2024-01-30T00:40:11;3.90;99.90
41720;DHT22;27405;53.316;-6.294;2024-01-30T00:42:41;3.90;99.90
41720;DHT22;27405;53.316;-6.294;2024-01-30T00:45:12;3.80;99.90
41720;DHT22;27405;53.316;-6.294;2024-01-30T00:47:38;3.80;99.90
41720;DHT22;27405;53.316;-6.294;2024-01-30T00:50:04;3.70;99.90
41720;DHT22;27405;53.316;-6.294;2024-01-30T00:52:30;3.70;99.90
41720;DHT22;27405;53.316;-6.294;2024-01-30T00:54:56;3.70;99.90
41720;DHT22;27405;53.316;-6.294;2024-01-30T00:57:21;3.60;99.90
41720;DHT22;27405;53.316;-6.294;2024-01-30T00:59:47;3.60;99.90
41720;DHT22;27405;53.316;-6.294;2024-01-30T01:02:13;3.60;99.90
41720;DHT22;27405;53.316;-6.294;2024-01-30T01:04:40;3.60;99.90
41720;DHT22;27405;53.316;-6.294;2024-01-30T01:07:06;3.50;99.90
41720;DHT22;27405;53.316;-6.294;2024-01-30T01:09:31;3.50;99.90
41720;DHT22;27405;53.316;-6.294;2024-01-30T01:11:57;3.40;99.90
41720;DHT22;27405;53.316;-6.294;2024-01-30T01:14:23;3.40;99.90
41720;DHT22;27405;53.316;-6.294;2024-01-30T01:16:48;3.40;99.90
41720;DHT22;27405;53.316;-6.294;2024-01-30T01:19:14;3.30;99.90
41720;DHT22;27405;53.316;-6.294;2024-01-30T01:21:40;3.30;99.90
41720;DHT22;27405;53.316;-6.294;2024-01-30T01:24:05;3.30;99.90
41720;DHT22;27405;53.316;-6.294;2024-01-30T01:26:31;3.30;99.90
41720;DHT22;27405;53.316;-6.294;2024-01-30T01:28:57;3.30;99.90
41720;DHT22;27405;53.316;-6.294;2024-01-30T01:31:22;3.30;99.90
41720;DHT22;27405;53.316;-6.294;2024-01-30T01:33:50;3.20;99.90
41720;DHT22;27405;53.316;-6.294;2024-01-30T01:36:15;3.20;99.90
41720;DHT22;27405;53.316;-6.294;2024-01-30T01:38:41;3.20;99.90
41720;DHT22;27405;53.316;-6.294;2024-01-30T01:41:07;3.20;99.90
41720;DHT22;27405;53.316;-6.294;2024-01-30T01:43:32;3.20;99.90
41720;DHT22;27405;53.316;-6.294;2024-01-30T01:45:58;3.10;99.90
41720;DHT22;27405;53.316;-6.294;2024-01-30T01:48:24;3.10;99.90
41720;DHT22;27405;53.316;-6.294;2024-01-30T01:50:50;3.10;99.90
41720;DHT22;27405;53.316;-6.294;2024-01-30T01:53:16;3.10;99.90
41720;DHT22;27405;53.316;-6.294;2024-01-30T01:55:42;3.00;99.90
41720;DHT22;27405;53.316;-6.294;2024-01-30T01:58:09;3.00;99.90
41720;DHT22;27405;53.316;-6.294;2024-01-30T02:00:36;3.00;99.90
41720;DHT22;27405;53.316;-6.294;2024-01-30T02:03:05;3.00;99.90
41720;DHT22;27405;53.316;-6.294;2024-01-30T02:05:32;2.90;99.90
41720;DHT22;27405;53.316;-6.294;2024-01-30T02:07:58;2.90;99.90
41720;DHT22;27405;53.316;-6.294;2024-01-30T02:10:24;2.90;99.90
41720;DHT22;27405;53.316;-6.294;2024-01-30T02:12:49;2.90;99.90
41720;DHT22;27405;53.316;-6.294;2024-01-30T02:15:15;2.90;99.90
41720;DHT22;27405;53.316;-6.294;2024-01-30T02:17:41;2.80;99.90
41720;DHT22;27405;53.316;-6.294;2024-01-30T02:20:07;2.90;99.90
41720;DHT22;27405;53.316;-6.294;2024-01-30T02:22:34;2.80;99.90
41720;DHT22;27405;53.316;-6.294;2024-01-30T02:25:00;2.80;99.90
41720;DHT22;27405;53.316;-6.294;2024-01-30T02:27:26;2.80;99.90
41720;DHT22;27405;53.316;-6.294;2024-01-30T02:29:52;2.80;99.90
41720;DHT22;27405;53.316;-6.294;2024-01-30T02:32:17;2.80;99.90
41720;DHT22;27405;53.316;-6.294;2024-01-30T02:34:43;2.80;99.90
41720;DHT22;27405;53.316;-6.294;2024-01-30T02:37:09;2.80;99.90
41720;DHT22;27405;53.316;-6.294;2024-01-30T02:39:34;2.80;99.90
41720;DHT22;27405;53.316;-6.294;2024-01-30T02:42:00;2.70;99.90
41720;DHT22;27405;53.316;-6.294;2024-01-30T02:44:26;2.80;99.90
41720;DHT22;27405;53.316;-6.294;2024-01-30T02:46:51;2.80;99.90
41720;DHT22;27405;53.316;-6.294;2024-01-30T02:49:19;2.80;99.90
41720;DHT22;27405;53.316;-6.294;2024-01-30T02:51:45;2.80;99.90
41720;DHT22;27405;53.316;-6.294;2024-01-30T02:54:10;2.80;99.90
41720;DHT22;27405;53.316;-6.294;2024-01-30T02:56:36;2.80;99.90
41720;DHT22;27405;53.316;-6.294;2024-01-30T02:59:02;2.80;99.90
41720;DHT22;27405;53.316;-6.294;2024-01-30T03:01:27;2.80;99.90
41720;DHT22;27405;53.316;-6.294;2024-01-30T03:03:53;2.80;99.90
41720;DHT22;27405;53.316;-6.294;2024-01-30T03:06:19;2.80;99.90
41720;DHT22;27405;53.316;-6.294;2024-01-30T03:08:45;2.80;99.90
41720;DHT22;27405;53.316;-6.294;2024-01-30T03:11:11;2.90;99.90
41720;DHT22;27405;53.316;-6.294;2024-01-30T03:13:36;2.80;99.90
41720;DHT22;27405;53.316;-6.294;2024-01-30T03:16:02;2.90;99.90
41720;DHT22;27405;53.316;-6.294;2024-01-30T03:18:28;2.80;99.90
41720;DHT22;27405;53.316;-6.294;2024-01-30T03:20:54;2.80;99.90
41720;DHT22;27405;53.316;-6.294;2024-01-30T03:23:19;2.80;99.90
41720;DHT22;27405;53.316;-6.294;2024-01-30T03:25:45;2.80;99.90
41720;DHT22;27405;53.316;-6.294;2024-01-30T03:28:11;2.80;99.90
41720;DHT22;27405;53.316;-6.294;2024-01-30T03:30:36;2.80;99.90
41720;DHT22;27405;53.316;-6.294;2024-01-30T03:33:02;2.80;99.90
41720;DHT22;27405;53.316;-6.294;2024-01-30T03:35:28;2.80;99.90
41720;DHT22;27405;53.316;-6.294;2024-01-30T03:37:53;2.80;99.90
41720;DHT22;27405;53.316;-6.294;2024-01-30T03:40:19;2.80;99.90
41720;DHT22;27405;53.316;-6.294;2024-01-30T03:42:45;2.80;99.90
41720;DHT22;27405;53.316;-6.294;2024-01-30T03:45:10;2.80;99.90
41720;DHT22;27405;53.316;-6.294;2024-01-30T03:47:36;2.70;99.90
41720;DHT22;27405;53.316;-6.294;2024-01-30T03:50:02;2.70;99.90
41720;DHT22;27405;53.316;-6.294;2024-01-30T03:52:28;2.70;99.90
41720;DHT22;27405;53.316;-6.294;2024-01-30T03:54:53;2.70;99.90
41720;DHT22;27405;53.316;-6.294;2024-01-30T03:57:19;2.70;99.90
41720;DHT22;27405;53.316;-6.294;2024-01-30T03:59:45;2.60;99.90
41720;DHT22;27405;53.316;-6.294;2024-01-30T04:02:11;2.60;99.90
41720;DHT22;27405;53.316;-6.294;2024-01-30T04:04:37;2.60;99.90
41720;DHT22;27405;53.316;-6.294;2024-01-30T04:07:03;2.60;99.90
41720;DHT22;27405;53.316;-6.294;2024-01-30T04:09:28;2.60;99.90
41720;DHT22;27405;53.316;-6.294;2024-01-30T04:11:54;2.60;99.90
41720;DHT22;27405;53.316;-6.294;2024-01-30T04:14:20;2.60;99.90
41720;DHT22;27405;53.316;-6.294;2024-01-30T04:16:45;2.60;99.90
41720;DHT22;27405;53.316;-6.294;2024-01-30T04:19:11;2.60;99.90
41720;DHT22;27405;53.316;-6.294;2024-01-30T04:21:37;2.50;99.90
41720;DHT22;27405;53.316;-6.294;2024-01-30T04:24:02;2.50;99.90
41720;DHT22;27405;53.316;-6.294;2024-01-30T04:26:28;2.50;99.90
41720;DHT22;27405;53.316;-6.294;2024-01-30T04:28:54;2.50;99.90
41720;DHT22;27405;53.316;-6.294;2024-01-30T04:31:19;2.50;99.90
41720;DHT22;27405;53.316;-6.294;2024-01-30T04:33:45;2.50;99.90
41720;DHT22;27405;53.316;-6.294;2024-01-30T04:36:11;2.40;99.90
41720;DHT22;27405;53.316;-6.294;2024-01-30T04:38:37;2.40;99.90
41720;DHT22;27405;53.316;-6.294;2024-01-30T04:41:04;2.40;99.90
41720;DHT22;27405;53.316;-6.294;2024-01-30T04:43:30;2.40;99.90
41720;DHT22;27405;53.316;-6.294;2024-01-30T04:45:56;2.40;99.90
41720;DHT22;27405;53.316;-6.294;2024-01-30T04:48:22;2.40;99.90
41720;DHT22;27405;53.316;-6.294;2024-01-30T04:50:47;2.40;99.90
41720;DHT22;27405;53.316;-6.294;2024-01-30T04:53:13;2.40;99.90
41720;DHT22;27405;53.316;-6.294;2024-01-30T04:55:38;2.40;99.90
41720;DHT22;27405;53.316;-6.294;2024-01-30T04:58:04;2.40;99.90
41720;DHT22;27405;53.316;-6.294;2024-01-30T05:00:30;2.40;99.90
41720;DHT22;27405;53.316;-6.294;2024-01-30T05:02:56;2.40;99.90
41720;DHT22;27405;53.316;-6.294;2024-01-30T05:05:21;2.40;99.90
41720;DHT22;27405;53.316;-6.294;2024-01-30T05:07:47;2.40;99.90
41720;DHT22;27405;53.316;-6.294;2024-01-30T05:10:14;2.40;99.90
41720;DHT22;27405;53.316;-6.294;2024-01-30T05:12:39;2.40;99.90
41720;DHT22;27405;53.316;-6.294;2024-01-30T05:15:05;2.40;99.90
41720;DHT22;27405;53.316;-6.294;2024-01-30T05:17:31;2.40;99.90
41720;DHT22;27405;53.316;-6.294;2024-01-30T05:19:57;2.40;99.90
41720;DHT22;27405;53.316;-6.294;2024-01-30T05:22:23;2.40;99.90
41720;DHT22;27405;53.316;-6.294;2024-01-30T05:24:49;2.40;99.90
41720;DHT22;27405;53.316;-6.294;2024-01-30T05:27:14;2.40;99.90
41720;DHT22;27405;53.316;-6.294;2024-01-30T05:29:40;2.50;99.90
41720;DHT22;27405;53.316;-6.294;2024-01-30T05:32:09;2.50;99.90
41720;DHT22;27405;53.316;-6.294;2024-01-30T05:34:36;2.50;99.90
41720;DHT22;27405;53.316;-6.294;2024-01-30T05:37:01;2.50;99.90
41720;DHT22;27405;53.316;-6.294;2024-01-30T05:39:27;2.50;99.90
41720;DHT22;27405;53.316;-6.294;2024-01-30T05:41:53;2.50;99.90
41720;DHT22;27405;53.316;-6.294;2024-01-30T05:44:18;2.50;99.90
41720;DHT22;27405;53.316;-6.294;2024-01-30T05:46:44;2.50;99.90
41720;DHT22;27405;53.316;-6.294;2024-01-30T05:49:09;2.50;99.90
41720;DHT22;27405;53.316;-6.294;2024-01-30T05:51:35;2.50;99.90
41720;DHT22;27405;53.316;-6.294;2024-01-30T05:54:01;2.60;99.90
41720;DHT22;27405;53.316;-6.294;2024-01-30T05:56:29;2.60;99.90
41720;DHT22;27405;53.316;-6.294;2024-01-30T05:58:55;2.60;99.90
41720;DHT22;27405;53.316;-6.294;2024-01-30T06:01:20;2.60;99.90
41720;DHT22;27405;53.316;-6.294;2024-01-30T06:03:46;2.60;99.90
41720;DHT22;27405;53.316;-6.294;2024-01-30T06:06:11;2.70;99.90
41720;DHT22;27405;53.316;-6.294;2024-01-30T06:08:39;2.60;99.90
41720;DHT22;27405;53.316;-6.294;2024-01-30T06:11:04;2.70;99.90
41720;DHT22;27405;53.316;-6.294;2024-01-30T06:13:30;2.70;99.90
41720;DHT22;27405;53.316;-6.294;2024-01-30T06:15:57;2.70;99.90
41720;DHT22;27405;53.316;-6.294;2024-01-30T06:18:23;2.70;99.90
41720;DHT22;27405;53.316;-6.294;2024-01-30T06:20:48;2.80;99.90
41720;DHT22;27405;53.316;-6.294;2024-01-30T06:23:14;2.80;99.90
41720;DHT22;27405;53.316;-6.294;2024-01-30T06:25:40;2.80;99.90
41720;DHT22;27405;53.316;-6.294;2024-01-30T06:28:06;2.80;99.90
41720;DHT22;27405;53.316;-6.294;2024-01-30T06:30:31;2.80;99.90
41720;DHT22;27405;53.316;-6.294;2024-01-30T06:32:57;2.80;99.90
41720;DHT22;27405;53.316;-6.294;2024-01-30T06:35:23;2.80;99.90
41720;DHT22;27405;53.316;-6.294;2024-01-30T06:37:48;2.80;99.90
41720;DHT22;27405;53.316;-6.294;2024-01-30T06:40:14;2.80;99.90
41720;DHT22;27405;53.316;-6.294;2024-01-30T06:42:40;2.80;99.90
41720;DHT22;27405;53.316;-6.294;2024-01-30T06:45:06;2.80;99.90
41720;DHT22;27405;53.316;-6.294;2024-01-30T06:47:31;2.80;99.90
41720;DHT22;27405;53.316;-6.294;2024-01-30T06:49:57;2.70;99.90
41720;DHT22;27405;53.316;-6.294;2024-01-30T06:52:23;2.80;99.90
41720;DHT22;27405;53.316;-6.294;2024-01-30T06:54:48;2.70;99.90
41720;DHT22;27405;53.316;-6.294;2024-01-30T06:57:14;2.70;99.90
41720;DHT22;27405;53.316;-6.294;2024-01-30T06:59:40;2.80;99.90
41720;DHT22;27405;53.316;-6.294;2024-01-30T07:02:09;2.70;99.90
41720;DHT22;27405;53.316;-6.294;2024-01-30T07:04:36;2.70;99.90
41720;DHT22;27405;53.316;-6.294;2024-01-30T07:07:03;2.80;99.90
41720;DHT22;27405;53.316;-6.294;2024-01-30T07:09:30;2.70;99.90
41720;DHT22;27405;53.316;-6.294;2024-01-30T07:11:56;2.70;99.90
41720;DHT22;27405;53.316;-6.294;2024-01-30T07:14:24;2.70;99.90
41720;DHT22;27405;53.316;-6.294;2024-01-30T07:16:49;2.80;99.90
41720;DHT22;27405;53.316;-6.294;2024-01-30T07:19:16;2.70;99.90
41720;DHT22;27405;53.316;-6.294;2024-01-30T07:21:42;2.80;99.90
41720;DHT22;27405;53.316;-6.294;2024-01-30T07:24:07;2.80;99.90
41720;DHT22;27405;53.316;-6.294;2024-01-30T07:26:33;2.80;99.90
41720;DHT22;27405;53.316;-6.294;2024-01-30T07:29:01;2.80;99.90
41720;DHT22;27405;53.316;-6.294;2024-01-30T07:31:27;2.80;99.90
41720;DHT22;27405;53.316;-6.294;2024-01-30T07:33:52;2.80;99.90
41720;DHT22;27405;53.316;-6.294;2024-01-30T07:36:18;2.80;99.90
41720;DHT22;27405;53.316;-6.294;2024-01-30T07:38:44;2.80;99.90
41720;DHT22;27405;53.316;-6.294;2024-01-30T07:41:10;2.90;99.90
41720;DHT22;27405;53.316;-6.294;2024-01-30T07:43:35;2.90;99.90
41720;DHT22;27405;53.316;-6.294;2024-01-30T07:46:01;2.90;99.90
41720;DHT22;27405;53.316;-6.294;2024-01-30T07:48:28;2.90;99.90
41720;DHT22;27405;53.316;-6.294;2024-01-30T07:50:53;3.00;99.90
41720;DHT22;27405;53.316;-6.294;2024-01-30T07:53:19;3.10;99.90
41720;DHT22;27405;53.316;-6.294;2024-01-30T07:55:45;3.10;99.90
41720;DHT22;27405;53.316;-6.294;2024-01-30T07:58:12;3.20;99.90
41720;DHT22;27405;53.316;-6.294;2024-01-30T08:00:38;3.30;99.90
41720;DHT22;27405;53.316;-6.294;2024-01-30T08:03:04;3.30;99.90
41720;DHT22;27405;53.316;-6.294;2024-01-30T08:05:30;3.30;99.90
41720;DHT22;27405;53.316;-6.294;2024-01-30T08:07:56;3.30;99.90
41720;DHT22;27405;53.316;-6.294;2024-01-30T08:10:22;3.30;99.90
41720;DHT22;27405;53.316;-6.294;2024-01-30T08:12:47;3.30;99.90
41720;DHT22;27405;53.316;-6.294;2024-01-30T08:15:13;3.30;99.90
41720;DHT22;27405;53.316;-6.294;2024-01-30T08:17:39;3.30;99.90
41720;DHT22;27405;53.316;-6.294;2024-01-30T08:20:05;3.30;99.90
41720;DHT22;27405;53.316;-6.294;2024-01-30T08:22:32;3.30;99.90
41720;DHT22;27405;53.316;-6.294;2024-01-30T08:24:58;3.30;99.90
41720;DHT22;27405;53.316;-6.294;2024-01-30T08:27:23;3.30;99.90
41720;DHT22;27405;53.316;-6.294;2024-01-30T08:29:49;3.40;99.90
41720;DHT22;27405;53.316;-6.294;2024-01-30T08:32:15;3.40;99.90
41720;DHT22;27405;53.316;-6.294;2024-01-30T08:34:41;3.40;99.90
41720;DHT22;27405;53.316;-6.294;2024-01-30T08:37:07;3.40;99.90
41720;DHT22;27405;53.316;-6.294;2024-01-30T08:39:33;3.40;99.90
41720;DHT22;27405;53.316;-6.294;2024-01-30T08:41:58;3.40;99.90
41720;DHT22;27405;53.316;-6.294;2024-01-30T08:44:24;3.40;99.90
41720;DHT22;27405;53.316;-6.294;2024-01-30T08:46:49;3.50;99.90
41720;DHT22;27405;53.316;-6.294;2024-01-30T08:49:20;3.50;99.90
41720;DHT22;27405;53.316;-6.294;2024-01-30T08:51:45;3.50;99.90
41720;DHT22;27405;53.316;-6.294;2024-01-30T08:54:11;3.50;99.90
41720;DHT22;27405;53.316;-6.294;2024-01-30T08:56:37;3.50;99.90
41720;DHT22;27405;53.316;-6.294;2024-01-30T08:59:02;3.50;99.90
41720;DHT22;27405;53.316;-6.294;2024-01-30T09:01:28;3.50;99.90
41720;DHT22;27405;53.316;-6.294;2024-01-30T09:03:53;3.50;99.90
41720;DHT22;27405;53.316;-6.294;2024-01-30T09:06:19;3.60;99.90
41720;DHT22;27405;53.316;-6.294;2024-01-30T09:08:45;3.60;99.90
41720;DHT22;27405;53.316;-6.294;2024-01-30T09:11:14;3.60;99.90
41720;DHT22;27405;53.316;-6.294;2024-01-30T09:13:41;3.60;99.90
41720;DHT22;27405;53.316;-6.294;2024-01-30T09:16:07;3.70;99.90
41720;DHT22;27405;53.316;-6.294;2024-01-30T09:18:33;3.70;99.90
41720;DHT22;27405;53.316;-6.294;2024-01-30T09:20:58;3.80;99.90
41720;DHT22;27405;53.316;-6.294;2024-01-30T09:23:27;3.80;99.90
41720;DHT22;27405;53.316;-6.294;2024-01-30T09:25:53;3.80;99.90
41720;DHT22;27405;53.316;-6.294;2024-01-30T09:28:19;3.90;99.90
41720;DHT22;27405;53.316;-6.294;2024-01-30T09:30:44;4.00;99.90
41720;DHT22;27405;53.316;-6.294;2024-01-30T09:33:10;4.00;99.90
41720;DHT22;27405;53.316;-6.294;2024-01-30T09:35:38;4.10;99.90
41720;DHT22;27405;53.316;-6.294;2024-01-30T09:38:05;4.10;99.90
41720;DHT22;27405;53.316;-6.294;2024-01-30T09:40:31;4.10;99.90
41720;DHT22;27405;53.316;-6.294;2024-01-30T09:42:58;4.20;99.90
41720;DHT22;27405;53.316;-6.294;2024-01-30T09:45:27;4.20;99.90
41720;DHT22;27405;53.316;-6.294;2024-01-30T09:47:53;4.20;99.90
41720;DHT22;27405;53.316;-6.294;2024-01-30T09:50:19;4.30;99.90
41720;DHT22;27405;53.316;-6.294;2024-01-30T09:52:46;4.30;99.90
41720;DHT22;27405;53.316;-6.294;2024-01-30T09:55:13;4.40;99.90
41720;DHT22;27405;53.316;-6.294;2024-01-30T09:57:39;4.40;99.90
41720;DHT22;27405;53.316;-6.294;2024-01-30T10:00:05;4.40;99.90
41720;DHT22;27405;53.316;-6.294;2024-01-30T10:02:34;4.50;99.90
41720;DHT22;27405;53.316;-6.294;2024-01-30T10:05:00;4.50;99.90
41720;DHT22;27405;53.316;-6.294;2024-01-30T10:07:26;4.50;99.90
41720;DHT22;27405;53.316;-6.294;2024-01-30T10:09:53;4.60;99.90
41720;DHT22;27405;53.316;-6.294;2024-01-30T10:12:19;4.70;99.90
41720;DHT22;27405;53.316;-6.294;2024-01-30T10:14:44;4.70;99.90
41720;DHT22;27405;53.316;-6.294;2024-01-30T10:17:11;4.70;99.90
41720;DHT22;27405;53.316;-6.294;2024-01-30T10:19:38;4.70;99.90
41720;DHT22;27405;53.316;-6.294;2024-01-30T10:22:04;4.80;99.90
41720;DHT22;27405;53.316;-6.294;2024-01-30T10:24:31;4.80;99.90
41720;DHT22;27405;53.316;-6.294;2024-01-30T10:26:57;4.90;99.90
41720;DHT22;27405;53.316;-6.294;2024-01-30T10:29:22;4.90;99.90
41720;DHT22;27405;53.316;-6.294;2024-01-30T10:31:58;5.00;99.90
41720;DHT22;27405;53.316;-6.294;2024-01-30T10:34:24;5.10;99.90
41720;DHT22;27405;53.316;-6.294;2024-01-30T10:36:50;5.20;99.90
41720;DHT22;27405;53.316;-6.294;2024-01-30T10:39:21;5.30;99.90
41720;DHT22;27405;53.316;-6.294;2024-01-30T10:41:48;5.40;99.90
41720;DHT22;27405;53.316;-6.294;2024-01-30T10:44:19;5.40;99.90
41720;DHT22;27405;53.316;-6.294;2024-01-30T10:46:50;5.50;99.90
41720;DHT22;27405;53.316;-6.294;2024-01-30T10:49:18;5.60;99.90
41720;DHT22;27405;53.316;-6.294;2024-01-30T10:51:45;5.70;99.90
41720;DHT22;27405;53.316;-6.294;2024-01-30T10:54:12;5.70;99.90
41720;DHT22;27405;53.316;-6.294;2024-01-30T10:56:40;5.80;99.90
41720;DHT22;27405;53.316;-6.294;2024-01-30T10:59:06;5.90;99.90
41720;DHT22;27405;53.316;-6.294;2024-01-30T11:01:32;6.00;99.90
41720;DHT22;27405;53.316;-6.294;2024-01-30T11:03:58;6.10;99.90
41720;DHT22;27405;53.316;-6.294;2024-01-30T11:06:25;6.10;99.90
41720;DHT22;27405;53.316;-6.294;2024-01-30T11:09:04;6.20;99.90
41720;DHT22;27405;53.316;-6.294;2024-01-30T11:11:50;6.30;99.90
41720;DHT22;27405;53.316;-6.294;2024-01-30T11:14:16;6.40;99.90
41720;DHT22;27405;53.316;-6.294;2024-01-30T11:16:42;6.40;99.90
41720;DHT22;27405;53.316;-6.294;2024-01-30T11:19:11;6.40;99.90
41720;DHT22;27405;53.316;-6.294;2024-01-30T11:21:43;6.40;99.90
41720;DHT22;27405;53.316;-6.294;2024-01-30T11:24:09;6.40;99.90
41720;DHT22;27405;53.316;-6.294;2024-01-30T11:26:35;6.40;99.90
41720;DHT22;27405;53.316;-6.294;2024-01-30T11:29:06;6.40;99.90
41720;DHT22;27405;53.316;-6.294;2024-01-30T11:31:32;6.30;99.90
41720;DHT22;27405;53.316;-6.294;2024-01-30T11:33:58;6.40;99.90
41720;DHT22;27405;53.316;-6.294;2024-01-30T11:36:25;6.30;99.90
41720;DHT22;27405;53.316;-6.294;2024-01-30T11:38:51;6.30;99.90
41720;DHT22;27405;53.316;-6.294;2024-01-30T11:41:17;6.30;99.90
41720;DHT22;27405;53.316;-6.294;2024-01-30T11:43:51;6.40;99.90
41720;DHT22;27405;53.316;-6.294;2024-01-30T11:46:17;6.40;99.90
41720;DHT22;27405;53.316;-6.294;2024-01-30T11:48:43;6.50;99.90
41720;DHT22;27405;53.316;-6.294;2024-01-30T11:51:08;6.50;99.90
41720;DHT22;27405;53.316;-6.294;2024-01-30T11:53:34;6.60;99.90
41720;DHT22;27405;53.316;-6.294;2024-01-30T11:56:00;6.60;99.90
41720;DHT22;27405;53.316;-6.294;2024-01-30T11:58:25;6.60;99.90
41720;DHT22;27405;53.316;-6.294;2024-01-30T12:00:58;6.60;99.90
41720;DHT22;27405;53.316;-6.294;2024-01-30T12:03:24;6.60;99.90
41720;DHT22;27405;53.316;-6.294;2024-01-30T12:05:59;6.60;99.90
41720;DHT22;27405;53.316;-6.294;2024-01-30T12:08:25;6.60;99.90
41720;DHT22;27405;53.316;-6.294;2024-01-30T12:10:57;6.50;99.90
41720;DHT22;27405;53.316;-6.294;2024-01-30T12:13:30;6.50;99.90
41720;DHT22;27405;53.316;-6.294;2024-01-30T12:15:56;6.50;99.90
41720;DHT22;27405;53.316;-6.294;2024-01-30T12:18:22;6.40;99.90
41720;DHT22;27405;53.316;-6.294;2024-01-30T12:21:06;6.40;99.90
41720;DHT22;27405;53.316;-6.294;2024-01-30T12:23:33;6.40;99.90
41720;DHT22;27405;53.316;-6.294;2024-01-30T12:26:00;6.50;99.90
41720;DHT22;27405;53.316;-6.294;2024-01-30T12:28:26;6.50;99.90
41720;DHT22;27405;53.316;-6.294;2024-01-30T12:31:02;6.50;99.90
41720;DHT22;27405;53.316;-6.294;2024-01-30T12:33:29;6.50;99.90
41720;DHT22;27405;53.316;-6.294;2024-01-30T12:35:55;6.60;99.90
41720;DHT22;27405;53.316;-6.294;2024-01-30T12:38:21;6.60;99.90
41720;DHT22;27405;53.316;-6.294;2024-01-30T12:40:47;6.70;99.90
41720;DHT22;27405;53.316;-6.294;2024-01-30T12:43:16;6.70;99.90
41720;DHT22;27405;53.316;-6.294;2024-01-30T12:45:42;6.80;99.90
41720;DHT22;27405;53.316;-6.294;2024-01-30T12:48:08;6.80;99.90
41720;DHT22;27405;53.316;-6.294;2024-01-30T12:50:34;6.90;99.90
41720;DHT22;27405;53.316;-6.294;2024-01-30T12:53:00;6.90;99.90
41720;DHT22;27405;53.316;-6.294;2024-01-30T12:55:26;7.00;99.90
41720;DHT22;27405;53.316;-6.294;2024-01-30T12:57:54;7.00;99.90
41720;DHT22;27405;53.316;-6.294;2024-01-30T13:00:20;7.00;99.90
41720;DHT22;27405;53.316;-6.294;2024-01-30T13:02:47;7.10;99.90
41720;DHT22;27405;53.316;-6.294;2024-01-30T13:05:13;7.20;99.90
41720;DHT22;27405;53.316;-6.294;2024-01-30T13:07:38;7.30;99.90
41720;DHT22;27405;53.316;-6.294;2024-01-30T13:10:04;7.30;99.90
41720;DHT22;27405;53.316;-6.294;2024-01-30T13:12:31;7.40;99.90
41720;DHT22;27405;53.316;-6.294;2024-01-30T13:15:01;7.50;99.90
41720;DHT22;27405;53.316;-6.294;2024-01-30T13:17:27;7.50;99.90
41720;DHT22;27405;53.316;-6.294;2024-01-30T13:19:53;7.50;99.90
41720;DHT22;27405;53.316;-6.294;2024-01-30T13:22:20;7.60;99.90
41720;DHT22;27405;53.316;-6.294;2024-01-30T13:24:47;7.60;99.90
41720;DHT22;27405;53.316;-6.294;2024-01-30T13:27:13;7.70;99.90
41720;DHT22;27405;53.316;-6.294;2024-01-30T13:29:39;7.70;99.90
41720;DHT22;27405;53.316;-6.294;2024-01-30T13:32:05;7.80;99.90
41720;DHT22;27405;53.316;-6.294;2024-01-30T13:34:31;7.90;99.90
41720;DHT22;27405;53.316;-6.294;2024-01-30T13:36:57;7.90;99.90
41720;DHT22;27405;53.316;-6.294;2024-01-30T13:39:22;8.00;99.90
41720;DHT22;27405;53.316;-6.294;2024-01-30T13:41:49;8.10;99.90
41720;DHT22;27405;53.316;-6.294;2024-01-30T13:44:16;8.10;99.90
41720;DHT22;27405;53.316;-6.294;2024-01-30T13:46:46;8.20;99.90
41720;DHT22;27405;53.316;-6.294;2024-01-30T13:49:12;8.20;99.90
41720;DHT22;27405;53.316;-6.294;2024-01-30T13:51:38;8.30;99.90
41720;DHT22;27405;53.316;-6.294;2024-01-30T13:54:03;8.30;99.90
41720;DHT22;27405;53.316;-6.294;2024-01-30T13:56:29;8.30;99.90
41720;DHT22;27405;53.316;-6.294;2024-01-30T13:58:55;8.40;99.90
41720;DHT22;27405;53.316;-6.294;2024-01-30T14:01:22;8.30;99.90
41720;DHT22;27405;53.316;-6.294;2024-01-30T14:03:48;8.40;99.90
41720;DHT22;27405;53.316;-6.294;2024-01-30T14:06:14;8.40;99.90
41720;DHT22;27405;53.316;-6.294;2024-01-30T14:08:40;8.40;99.90
41720;DHT22;27405;53.316;-6.294;2024-01-30T14:11:05;8.40;99.90
41720;DHT22;27405;53.316;-6.294;2024-01-30T14:13:32;8.40;99.90
41720;DHT22;27405;53.316;-6.294;2024-01-30T14:15:58;8.40;99.90
41720;DHT22;27405;53.316;-6.294;2024-01-30T14:18:24;8.40;99.90
41720;DHT22;27405;53.316;-6.294;2024-01-30T14:20:51;8.30;99.90
41720;DHT22;27405;53.316;-6.294;2024-01-30T14:23:17;8.30;99.90
41720;DHT22;27405;53.316;-6.294;2024-01-30T14:25:43;8.30;99.90
41720;DHT22;27405;53.316;-6.294;2024-01-30T14:28:08;8.30;99.90
41720;DHT22;27405;53.316;-6.294;2024-01-30T14:30:34;8.30;99.90
41720;DHT22;27405;53.316;-6.294;2024-01-30T14:33:01;8.20;99.90
41720;DHT22;27405;53.316;-6.294;2024-01-30T14:35:27;8.20;99.90
41720;DHT22;27405;53.316;-6.294;2024-01-30T14:37:52;8.20;99.90
41720;DHT22;27405;53.316;-6.294;2024-01-30T14:40:19;8.20;99.90
41720;DHT22;27405;53.316;-6.294;2024-01-30T14:42:45;8.20;99.90
41720;DHT22;27405;53.316;-6.294;2024-01-30T14:45:11;8.20;99.90
41720;DHT22;27405;53.316;-6.294;2024-01-30T14:47:37;8.10;99.90
41720;DHT22;27405;53.316;-6.294;2024-01-30T14:50:03;8.10;99.90
41720;DHT22;27405;53.316;-6.294;2024-01-30T14:52:31;8.10;99.90
41720;DHT22;27405;53.316;-6.294;2024-01-30T14:54:57;8.10;99.90
41720;DHT22;27405;53.316;-6.294;2024-01-30T14:57:24;8.10;99.90
41720;DHT22;27405;53.316;-6.294;2024-01-30T14:59:49;8.10;99.90
41720;DHT22;27405;53.316;-6.294;2024-01-30T15:02:15;8.10;99.90
41720;DHT22;27405;53.316;-6.294;2024-01-30T15:04:41;8.10;99.90
41720;DHT22;27405;53.316;-6.294;2024-01-30T15:07:07;8.10;99.90
41720;DHT22;27405;53.316;-6.294;2024-01-30T15:09:33;8.20;99.90
41720;DHT22;27405;53.316;-6.294;2024-01-30T15:11:59;8.20;99.90
41720;DHT22;27405;53.316;-6.294;2024-01-30T15:14:24;8.30;99.90
41720;DHT22;27405;53.316;-6.294;2024-01-30T15:16:50;8.30;99.90
41720;DHT22;27405;53.316;-6.294;2024-01-30T15:19:16;8.30;99.90
41720;DHT22;27405;53.316;-6.294;2024-01-30T15:21:41;8.40;99.90
41720;DHT22;27405;53.316;-6.294;2024-01-30T15:24:07;8.40;99.90